sensor_id;sensor_type;location;lat;lon;timestamp;P1;durP1;ratioP1;P2;durP2;ratioP2
58512;SDS011;44302;47.914;10.642;2022-07-06T00:00:33;3.33;;;2.10;;
58512;SDS011;44302;47.914;10.642;2022-07-06T00:02:58;4.07;;;2.20;;
58512;SDS011;44302;47.914;10.642;2022-07-06T00:05:24;4.27;;;2.00;;
58512;SDS011;44302;47.914;10.642;2022-07-06T00:07:50;3.97;;;2.23;;
58512;SDS011;44302;47.914;10.642;2022-07-06T00:10:16;2.37;;;1.73;;
58512;SDS011;44302;47.914;10.642;2022-07-06T00:12:42;3.10;;;1.90;;
58512;SDS011;44302;47.914;10.642;2022-07-06T00:15:09;3.60;;;2.20;;
58512;SDS011;44302;47.914;10.642;2022-07-06T00:17:35;5.97;;;2.23;;
58512;SDS011;44302;47.914;10.642;2022-07-06T00:20:01;2.27;;;2.03;;
58512;SDS011;44302;47.914;10.642;2022-07-06T00:22:27;2.00;;;1.87;;
58512;SDS011;44302;47.914;10.642;2022-07-06T00:24:52;2.80;;;1.90;;
58512;SDS011;44302;47.914;10.642;2022-07-06T00:27:18;2.03;;;1.73;;
58512;SDS011;44302;47.914;10.642;2022-07-06T00:29:44;1.83;;;1.73;;
58512;SDS011;44302;47.914;10.642;2022-07-06T00:32:10;2.03;;;1.83;;
58512;SDS011;44302;47.914;10.642;2022-07-06T00:34:36;2.77;;;1.70;;
58512;SDS011;44302;47.914;10.642;2022-07-06T00:37:04;2.57;;;1.60;;
58512;SDS011;44302;47.914;10.642;2022-07-06T00:39:31;1.70;;;1.53;;
58512;SDS011;44302;47.914;10.642;2022-07-06T00:41:57;3.70;;;1.53;;
58512;SDS011;44302;47.914;10.642;2022-07-06T00:44:23;5.57;;;1.50;;
58512;SDS011;44302;47.914;10.642;2022-07-06T00:46:49;3.20;;;1.73;;
58512;SDS011;44302;47.914;10.642;2022-07-06T00:49:14;1.40;;;1.30;;
58512;SDS011;44302;47.914;10.642;2022-07-06T00:51:59;1.53;;;1.40;;
58512;SDS011;44302;47.914;10.642;2022-07-06T00:54:26;2.17;;;1.50;;
58512;SDS011;44302;47.914;10.642;2022-07-06T00:56:55;2.90;;;1.77;;
58512;SDS011;44302;47.914;10.642;2022-07-06T00:59:20;1.67;;;1.57;;
58512;SDS011;44302;47.914;10.642;2022-07-06T01:01:47;2.33;;;1.70;;
58512;SDS011;44302;47.914;10.642;2022-07-06T01:04:12;2.80;;;1.53;;
58512;SDS011;44302;47.914;10.642;2022-07-06T01:06:38;2.47;;;1.50;;
58512;SDS011;44302;47.914;10.642;2022-07-06T01:09:04;1.97;;;1.70;;
58512;SDS011;44302;47.914;10.642;2022-07-06T01:11:30;2.70;;;1.60;;
58512;SDS011;44302;47.914;10.642;2022-07-06T01:13:56;2.53;;;1.80;;
58512;SDS011;44302;47.914;10.642;2022-07-06T01:16:22;2.53;;;1.70;;
58512;SDS011;44302;47.914;10.642;2022-07-06T01:18:48;2.27;;;1.60;;
58512;SDS011;44302;47.914;10.642;2022-07-06T01:21:14;2.23;;;1.80;;
58512;SDS011;44302;47.914;10.642;2022-07-06T01:23:41;1.80;;;1.70;;
58512;SDS011;44302;47.914;10.642;2022-07-06T01:26:09;2.30;;;1.90;;
58512;SDS011;44302;47.914;10.642;2022-07-06T01:28:39;2.10;;;1.90;;
58512;SDS011;44302;47.914;10.642;2022-07-06T01:31:05;3.17;;;1.73;;
58512;SDS011;44302;47.914;10.642;2022-07-06T01:33:38;2.53;;;1.97;;
58512;SDS011;44302;47.914;10.642;2022-07-06T01:36:04;2.67;;;2.10;;
58512;SDS011;44302;47.914;10.642;2022-07-06T01:38:29;2.57;;;2.10;;
58512;SDS011;44302;47.914;10.642;2022-07-06T01:40:55;2.23;;;1.87;;
58512;SDS011;44302;47.914;10.642;2022-07-06T01:43:21;2.50;;;2.30;;
58512;SDS011;44302;47.914;10.642;2022-07-06T01:45:46;4.13;;;2.00;;
58512;SDS011;44302;47.914;10.642;2022-07-06T01:48:12;2.70;;;2.00;;
58512;SDS011;44302;47.914;10.642;2022-07-06T01:50:38;2.50;;;2.30;;
58512;SDS011;44302;47.914;10.642;2022-07-06T01:53:04;2.17;;;1.93;;
58512;SDS011;44302;47.914;10.642;2022-07-06T01:55:29;3.07;;;2.40;;
58512;SDS011;44302;47.914;10.642;2022-07-06T01:57:55;4.83;;;2.10;;
58512;SDS011;44302;47.914;10.642;2022-07-06T02:00:21;2.60;;;2.07;;
58512;SDS011;44302;47.914;10.642;2022-07-06T02:02:47;2.70;;;1.90;;
58512;SDS011;44302;47.914;10.642;2022-07-06T02:05:12;3.33;;;2.07;;
58512;SDS011;44302;47.914;10.642;2022-07-06T02:07:38;2.00;;;1.80;;
58512;SDS011;44302;47.914;10.642;2022-07-06T02:10:04;1.90;;;1.80;;
58512;SDS011;44302;47.914;10.642;2022-07-06T02:12:30;3.23;;;1.80;;
58512;SDS011;44302;47.914;10.642;2022-07-06T02:14:56;2.10;;;1.90;;
58512;SDS011;44302;47.914;10.642;2022-07-06T02:17:21;5.50;;;2.10;;
58512;SDS011;44302;47.914;10.642;2022-07-06T02:19:47;3.23;;;2.00;;
58512;SDS011;44302;47.914;10.642;2022-07-06T02:22:13;4.40;;;2.10;;
58512;SDS011;44302;47.914;10.642;2022-07-06T02:24:38;3.20;;;2.20;;
58512;SDS011;44302;47.914;10.642;2022-07-06T02:27:04;2.43;;;2.20;;
58512;SDS011;44302;47.914;10.642;2022-07-06T02:29:30;3.30;;;2.33;;
58512;SDS011;44302;47.914;10.642;2022-07-06T02:31:56;2.90;;;2.33;;
58512;SDS011;44302;47.914;10.642;2022-07-06T02:34:22;3.53;;;2.73;;
58512;SDS011;44302;47.914;10.642;2022-07-06T02:36:48;6.10;;;2.27;;
58512;SDS011;44302;47.914;10.642;2022-07-06T02:39:13;2.50;;;2.30;;
58512;SDS011;44302;47.914;10.642;2022-07-06T02:41:39;2.60;;;2.40;;
58512;SDS011;44302;47.914;10.642;2022-07-06T02:44:05;2.57;;;2.37;;
58512;SDS011;44302;47.914;10.642;2022-07-06T02:46:31;3.97;;;2.73;;
58512;SDS011;44302;47.914;10.642;2022-07-06T02:48:57;2.70;;;2.50;;
58512;SDS011;44302;47.914;10.642;2022-07-06T02:51:23;2.70;;;2.50;;
58512;SDS011;44302;47.914;10.642;2022-07-06T02:53:49;2.53;;;2.20;;
58512;SDS011;44302;47.914;10.642;2022-07-06T02:56:15;2.70;;;2.50;;
58512;SDS011;44302;47.914;10.642;2022-07-06T02:58:41;2.90;;;2.63;;
58512;SDS011;44302;47.914;10.642;2022-07-06T03:01:07;3.30;;;2.50;;
58512;SDS011;44302;47.914;10.642;2022-07-06T03:03:33;2.80;;;2.60;;
58512;SDS011;44302;47.914;10.642;2022-07-06T03:05:58;2.53;;;2.33;;
58512;SDS011;44302;47.914;10.642;2022-07-06T03:08:25;3.87;;;2.77;;
58512;SDS011;44302;47.914;10.642;2022-07-06T03:10:50;3.17;;;2.70;;
58512;SDS011;44302;47.914;10.642;2022-07-06T03:13:16;5.67;;;2.70;;
58512;SDS011;44302;47.914;10.642;2022-07-06T03:15:42;3.30;;;2.20;;
58512;SDS011;44302;47.914;10.642;2022-07-06T03:18:07;4.63;;;2.70;;
58512;SDS011;44302;47.914;10.642;2022-07-06T03:20:33;4.30;;;2.80;;
58512;SDS011;44302;47.914;10.642;2022-07-06T03:22:59;5.40;;;2.63;;
58512;SDS011;44302;47.914;10.642;2022-07-06T03:25:24;5.57;;;3.00;;
58512;SDS011;44302;47.914;10.642;2022-07-06T03:27:50;2.77;;;2.57;;
58512;SDS011;44302;47.914;10.642;2022-07-06T03:30:16;2.73;;;2.53;;
58512;SDS011;44302;47.914;10.642;2022-07-06T03:32:42;5.40;;;2.80;;
58512;SDS011;44302;47.914;10.642;2022-07-06T03:35:08;2.27;;;2.07;;
58512;SDS011;44302;47.914;10.642;2022-07-06T03:37:34;3.37;;;2.80;;
58512;SDS011;44302;47.914;10.642;2022-07-06T03:40:00;2.93;;;2.63;;
58512;SDS011;44302;47.914;10.642;2022-07-06T03:42:26;3.33;;;2.57;;
58512;SDS011;44302;47.914;10.642;2022-07-06T03:44:52;2.90;;;2.67;;
58512;SDS011;44302;47.914;10.642;2022-07-06T03:47:18;3.37;;;2.43;;
58512;SDS011;44302;47.914;10.642;2022-07-06T03:49:43;2.80;;;2.60;;
58512;SDS011;44302;47.914;10.642;2022-07-06T03:52:09;2.47;;;2.13;;
58512;SDS011;44302;47.914;10.642;2022-07-06T03:54:35;2.33;;;2.13;;
58512;SDS011;44302;47.914;10.642;2022-07-06T03:57:01;3.33;;;2.33;;
58512;SDS011;44302;47.914;10.642;2022-07-06T03:59:27;3.30;;;2.27;;
58512;SDS011;44302;47.914;10.642;2022-07-06T04:01:52;3.97;;;2.37;;
58512;SDS011;44302;47.914;10.642;2022-07-06T04:04:18;2.70;;;2.50;;
58512;SDS011;44302;47.914;10.642;2022-07-06T04:06:44;3.50;;;3.00;;
58512;SDS011;44302;47.914;10.642;2022-07-06T04:09:10;3.07;;;2.80;;
58512;SDS011;44302;47.914;10.642;2022-07-06T04:11:36;4.30;;;2.70;;
58512;SDS011;44302;47.914;10.642;2022-07-06T04:14:02;3.43;;;2.77;;
58512;SDS011;44302;47.914;10.642;2022-07-06T04:16:28;3.83;;;2.23;;
58512;SDS011;44302;47.914;10.642;2022-07-06T04:18:53;3.03;;;2.40;;
58512;SDS011;44302;47.914;10.642;2022-07-06T04:21:19;3.17;;;2.70;;
58512;SDS011;44302;47.914;10.642;2022-07-06T04:23:45;2.40;;;2.20;;
58512;SDS011;44302;47.914;10.642;2022-07-06T04:26:11;2.97;;;2.77;;
58512;SDS011;44302;47.914;10.642;2022-07-06T04:28:37;3.87;;;3.07;;
58512;SDS011;44302;47.914;10.642;2022-07-06T04:31:03;2.70;;;2.37;;
58512;SDS011;44302;47.914;10.642;2022-07-06T04:33:28;4.00;;;2.63;;
58512;SDS011;44302;47.914;10.642;2022-07-06T04:35:55;3.17;;;2.63;;
58512;SDS011;44302;47.914;10.642;2022-07-06T04:38:20;2.40;;;2.20;;
58512;SDS011;44302;47.914;10.642;2022-07-06T04:40:46;3.43;;;2.43;;
58512;SDS011;44302;47.914;10.642;2022-07-06T04:43:13;6.90;;;2.60;;
58512;SDS011;44302;47.914;10.642;2022-07-06T04:45:39;3.30;;;2.30;;
58512;SDS011;44302;47.914;10.642;2022-07-06T04:48:05;5.13;;;2.70;;
58512;SDS011;44302;47.914;10.642;2022-07-06T04:50:33;3.27;;;2.50;;
58512;SDS011;44302;47.914;10.642;2022-07-06T04:52:58;2.40;;;2.10;;
58512;SDS011;44302;47.914;10.642;2022-07-06T04:55:25;2.67;;;2.47;;
58512;SDS011;44302;47.914;10.642;2022-07-06T04:57:50;4.00;;;2.50;;
58512;SDS011;44302;47.914;10.642;2022-07-06T05:00:17;4.33;;;2.40;;
58512;SDS011;44302;47.914;10.642;2022-07-06T05:02:43;2.80;;;2.30;;
58512;SDS011;44302;47.914;10.642;2022-07-06T05:05:08;3.93;;;2.43;;
58512;SDS011;44302;47.914;10.642;2022-07-06T05:07:34;3.10;;;2.33;;
58512;SDS011;44302;47.914;10.642;2022-07-06T05:10:04;3.53;;;2.30;;
58512;SDS011;44302;47.914;10.642;2022-07-06T05:12:34;5.20;;;2.23;;
58512;SDS011;44302;47.914;10.642;2022-07-06T05:15:05;3.07;;;2.37;;
58512;SDS011;44302;47.914;10.642;2022-07-06T05:17:32;2.83;;;2.57;;
58512;SDS011;44302;47.914;10.642;2022-07-06T05:19:58;6.10;;;2.80;;
58512;SDS011;44302;47.914;10.642;2022-07-06T05:22:23;3.47;;;2.23;;
58512;SDS011;44302;47.914;10.642;2022-07-06T05:24:50;2.07;;;1.87;;
58512;SDS011;44302;47.914;10.642;2022-07-06T05:27:16;3.73;;;2.10;;
58512;SDS011;44302;47.914;10.642;2022-07-06T05:29:41;5.33;;;2.47;;
58512;SDS011;44302;47.914;10.642;2022-07-06T05:32:07;5.60;;;1.97;;
58512;SDS011;44302;47.914;10.642;2022-07-06T05:34:33;1.80;;;1.70;;
58512;SDS011;44302;47.914;10.642;2022-07-06T05:37:01;3.40;;;1.90;;
58512;SDS011;44302;47.914;10.642;2022-07-06T05:39:27;3.97;;;2.07;;
58512;SDS011;44302;47.914;10.642;2022-07-06T05:41:54;2.00;;;1.80;;
58512;SDS011;44302;47.914;10.642;2022-07-06T05:44:20;3.10;;;1.73;;
58512;SDS011;44302;47.914;10.642;2022-07-06T05:46:46;2.60;;;1.80;;
58512;SDS011;44302;47.914;10.642;2022-07-06T05:49:12;3.80;;;1.70;;
58512;SDS011;44302;47.914;10.642;2022-07-06T05:51:56;1.87;;;1.77;;
58512;SDS011;44302;47.914;10.642;2022-07-06T05:54:21;2.20;;;1.60;;
58512;SDS011;44302;47.914;10.642;2022-07-06T05:56:47;3.87;;;1.80;;
58512;SDS011;44302;47.914;10.642;2022-07-06T05:59:13;3.30;;;2.40;;
58512;SDS011;44302;47.914;10.642;2022-07-06T06:01:39;2.23;;;1.83;;
58512;SDS011;44302;47.914;10.642;2022-07-06T06:04:05;4.23;;;1.80;;
58512;SDS011;44302;47.914;10.642;2022-07-06T06:06:30;2.73;;;1.90;;
58512;SDS011;44302;47.914;10.642;2022-07-06T06:08:56;3.23;;;2.00;;
58512;SDS011;44302;47.914;10.642;2022-07-06T06:11:22;5.00;;;2.43;;
58512;SDS011;44302;47.914;10.642;2022-07-06T06:13:48;2.13;;;1.57;;
58512;SDS011;44302;47.914;10.642;2022-07-06T06:16:14;2.07;;;1.83;;
58512;SDS011;44302;47.914;10.642;2022-07-06T06:18:40;2.90;;;1.90;;
58512;SDS011;44302;47.914;10.642;2022-07-06T06:21:06;2.77;;;1.80;;
58512;SDS011;44302;47.914;10.642;2022-07-06T06:23:32;1.60;;;1.50;;
58512;SDS011;44302;47.914;10.642;2022-07-06T06:25:58;3.03;;;2.17;;
58512;SDS011;44302;47.914;10.642;2022-07-06T06:28:24;2.07;;;1.60;;
58512;SDS011;44302;47.914;10.642;2022-07-06T06:30:50;1.87;;;1.70;;
58512;SDS011;44302;47.914;10.642;2022-07-06T06:33:17;2.90;;;1.70;;
58512;SDS011;44302;47.914;10.642;2022-07-06T06:35:47;3.23;;;1.90;;
58512;SDS011;44302;47.914;10.642;2022-07-06T06:38:15;2.83;;;1.90;;
58512;SDS011;44302;47.914;10.642;2022-07-06T06:40:41;6.33;;;2.10;;
58512;SDS011;44302;47.914;10.642;2022-07-06T06:43:07;3.17;;;1.70;;
58512;SDS011;44302;47.914;10.642;2022-07-06T06:45:34;4.47;;;1.87;;
58512;SDS011;44302;47.914;10.642;2022-07-06T06:48:00;3.33;;;1.73;;
58512;SDS011;44302;47.914;10.642;2022-07-06T06:50:26;2.13;;;1.80;;
58512;SDS011;44302;47.914;10.642;2022-07-06T06:52:52;2.27;;;1.83;;
58512;SDS011;44302;47.914;10.642;2022-07-06T06:55:18;2.50;;;1.63;;
58512;SDS011;44302;47.914;10.642;2022-07-06T06:57:44;2.30;;;2.00;;
58512;SDS011;44302;47.914;10.642;2022-07-06T07:00:11;5.40;;;1.80;;
58512;SDS011;44302;47.914;10.642;2022-07-06T07:02:37;3.67;;;1.87;;
58512;SDS011;44302;47.914;10.642;2022-07-06T07:05:04;3.60;;;2.00;;
58512;SDS011;44302;47.914;10.642;2022-07-06T07:07:30;1.87;;;1.77;;
58512;SDS011;44302;47.914;10.642;2022-07-06T07:09:56;2.90;;;1.80;;
58512;SDS011;44302;47.914;10.642;2022-07-06T07:12:22;2.17;;;1.57;;
58512;SDS011;44302;47.914;10.642;2022-07-06T07:14:48;3.60;;;1.90;;
58512;SDS011;44302;47.914;10.642;2022-07-06T07:17:14;1.97;;;1.73;;
58512;SDS011;44302;47.914;10.642;2022-07-06T07:19:40;3.50;;;1.70;;
58512;SDS011;44302;47.914;10.642;2022-07-06T07:22:06;3.73;;;1.90;;
58512;SDS011;44302;47.914;10.642;2022-07-06T07:24:31;2.63;;;1.80;;
58512;SDS011;44302;47.914;10.642;2022-07-06T07:26:57;2.43;;;1.90;;
58512;SDS011;44302;47.914;10.642;2022-07-06T07:29:23;5.10;;;2.30;;
58512;SDS011;44302;47.914;10.642;2022-07-06T07:31:49;3.20;;;2.00;;
58512;SDS011;44302;47.914;10.642;2022-07-06T07:34:14;5.77;;;2.00;;
58512;SDS011;44302;47.914;10.642;2022-07-06T07:36:41;2.07;;;1.63;;
58512;SDS011;44302;47.914;10.642;2022-07-06T07:39:07;1.70;;;1.40;;
58512;SDS011;44302;47.914;10.642;2022-07-06T07:41:32;2.77;;;1.67;;
58512;SDS011;44302;47.914;10.642;2022-07-06T07:43:58;3.13;;;1.70;;
58512;SDS011;44302;47.914;10.642;2022-07-06T07:46:24;3.47;;;1.87;;
58512;SDS011;44302;47.914;10.642;2022-07-06T07:48:49;3.10;;;1.60;;
58512;SDS011;44302;47.914;10.642;2022-07-06T07:51:15;3.07;;;1.70;;
58512;SDS011;44302;47.914;10.642;2022-07-06T07:53:41;2.47;;;1.80;;
58512;SDS011;44302;47.914;10.642;2022-07-06T07:56:07;2.10;;;1.70;;
58512;SDS011;44302;47.914;10.642;2022-07-06T07:58:33;4.23;;;1.93;;
58512;SDS011;44302;47.914;10.642;2022-07-06T08:00:58;1.80;;;1.70;;
58512;SDS011;44302;47.914;10.642;2022-07-06T08:03:25;2.83;;;1.63;;
58512;SDS011;44302;47.914;10.642;2022-07-06T08:05:51;4.47;;;2.00;;
58512;SDS011;44302;47.914;10.642;2022-07-06T08:08:16;1.83;;;1.60;;
58512;SDS011;44302;47.914;10.642;2022-07-06T08:10:42;2.27;;;1.70;;
58512;SDS011;44302;47.914;10.642;2022-07-06T08:13:09;3.30;;;1.63;;
58512;SDS011;44302;47.914;10.642;2022-07-06T08:15:35;3.73;;;1.80;;
58512;SDS011;44302;47.914;10.642;2022-07-06T08:18:01;1.93;;;1.63;;
58512;SDS011;44302;47.914;10.642;2022-07-06T08:20:28;3.70;;;2.00;;
58512;SDS011;44302;47.914;10.642;2022-07-06T08:22:54;3.17;;;1.57;;
58512;SDS011;44302;47.914;10.642;2022-07-06T08:25:20;3.33;;;1.60;;
58512;SDS011;44302;47.914;10.642;2022-07-06T08:27:46;3.87;;;1.60;;
58512;SDS011;44302;47.914;10.642;2022-07-06T08:30:11;3.67;;;1.67;;
58512;SDS011;44302;47.914;10.642;2022-07-06T08:32:41;3.33;;;1.87;;
58512;SDS011;44302;47.914;10.642;2022-07-06T08:35:07;2.47;;;1.93;;
58512;SDS011;44302;47.914;10.642;2022-07-06T08:37:34;2.70;;;1.87;;
58512;SDS011;44302;47.914;10.642;2022-07-06T08:40:00;4.00;;;1.93;;
58512;SDS011;44302;47.914;10.642;2022-07-06T08:42:27;2.47;;;1.80;;
58512;SDS011;44302;47.914;10.642;2022-07-06T08:44:57;4.30;;;2.00;;
58512;SDS011;44302;47.914;10.642;2022-07-06T08:47:25;2.80;;;1.80;;
58512;SDS011;44302;47.914;10.642;2022-07-06T08:49:52;4.33;;;1.83;;
58512;SDS011;44302;47.914;10.642;2022-07-06T08:52:19;3.73;;;1.90;;
58512;SDS011;44302;47.914;10.642;2022-07-06T08:54:46;5.20;;;2.20;;
58512;SDS011;44302;47.914;10.642;2022-07-06T08:57:12;5.33;;;1.83;;
58512;SDS011;44302;47.914;10.642;2022-07-06T08:59:38;3.73;;;1.97;;
58512;SDS011;44302;47.914;10.642;2022-07-06T09:02:04;2.23;;;1.60;;
58512;SDS011;44302;47.914;10.642;2022-07-06T09:04:32;2.97;;;2.03;;
58512;SDS011;44302;47.914;10.642;2022-07-06T09:07:00;3.17;;;2.30;;
58512;SDS011;44302;47.914;10.642;2022-07-06T09:09:25;2.47;;;2.20;;
58512;SDS011;44302;47.914;10.642;2022-07-06T09:11:56;2.10;;;1.90;;
58512;SDS011;44302;47.914;10.642;2022-07-06T09:14:22;3.23;;;2.33;;
58512;SDS011;44302;47.914;10.642;2022-07-06T09:16:51;3.43;;;1.90;;
58512;SDS011;44302;47.914;10.642;2022-07-06T09:19:26;4.03;;;2.10;;
58512;SDS011;44302;47.914;10.642;2022-07-06T09:21:52;2.90;;;1.97;;
58512;SDS011;44302;47.914;10.642;2022-07-06T09:24:19;5.53;;;1.93;;
58512;SDS011;44302;47.914;10.642;2022-07-06T09:26:44;3.23;;;1.90;;
58512;SDS011;44302;47.914;10.642;2022-07-06T09:29:13;2.47;;;1.80;;
58512;SDS011;44302;47.914;10.642;2022-07-06T09:31:39;1.80;;;1.67;;
58512;SDS011;44302;47.914;10.642;2022-07-06T09:34:06;2.73;;;2.20;;
58512;SDS011;44302;47.914;10.642;2022-07-06T09:36:45;2.87;;;1.73;;
58512;SDS011;44302;47.914;10.642;2022-07-06T09:41:52;2.40;;;1.90;;
58512;SDS011;44302;47.914;10.642;2022-07-06T09:44:23;3.20;;;1.90;;
58512;SDS011;44302;47.914;10.642;2022-07-06T09:46:52;5.03;;;2.37;;
58512;SDS011;44302;47.914;10.642;2022-07-06T09:49:20;3.33;;;2.00;;
58512;SDS011;44302;47.914;10.642;2022-07-06T09:51:47;4.63;;;1.90;;
58512;SDS011;44302;47.914;10.642;2022-07-06T09:54:14;2.67;;;1.80;;
58512;SDS011;44302;47.914;10.642;2022-07-06T09:56:41;1.63;;;1.50;;
58512;SDS011;44302;47.914;10.642;2022-07-06T09:59:12;4.53;;;1.63;;
58512;SDS011;44302;47.914;10.642;2022-07-06T10:01:40;3.20;;;1.70;;
58512;SDS011;44302;47.914;10.642;2022-07-06T10:04:07;4.03;;;2.00;;
58512;SDS011;44302;47.914;10.642;2022-07-06T10:06:33;2.50;;;1.70;;
58512;SDS011;44302;47.914;10.642;2022-07-06T10:09:00;2.30;;;1.70;;
58512;SDS011;44302;47.914;10.642;2022-07-06T10:11:27;2.73;;;1.63;;
58512;SDS011;44302;47.914;10.642;2022-07-06T10:13:55;2.20;;;1.83;;
58512;SDS011;44302;47.914;10.642;2022-07-06T10:16:22;3.50;;;1.53;;
58512;SDS011;44302;47.914;10.642;2022-07-06T10:18:50;3.13;;;1.47;;
58512;SDS011;44302;47.914;10.642;2022-07-06T10:21:18;3.50;;;1.30;;
58512;SDS011;44302;47.914;10.642;2022-07-06T10:23:45;3.63;;;1.70;;
58512;SDS011;44302;47.914;10.642;2022-07-06T10:26:12;2.03;;;1.33;;
58512;SDS011;44302;47.914;10.642;2022-07-06T10:28:38;4.30;;;1.50;;
58512;SDS011;44302;47.914;10.642;2022-07-06T10:31:04;2.00;;;1.30;;
58512;SDS011;44302;47.914;10.642;2022-07-06T10:33:31;3.50;;;1.30;;
58512;SDS011;44302;47.914;10.642;2022-07-06T10:35:58;1.43;;;1.23;;
58512;SDS011;44302;47.914;10.642;2022-07-06T10:38:33;2.27;;;1.13;;
58512;SDS011;44302;47.914;10.642;2022-07-06T10:41:03;3.07;;;1.23;;
58512;SDS011;44302;47.914;10.642;2022-07-06T10:43:44;2.83;;;1.43;;
58512;SDS011;44302;47.914;10.642;2022-07-06T10:46:11;1.83;;;1.30;;
58512;SDS011;44302;47.914;10.642;2022-07-06T10:48:42;1.83;;;1.30;;
58512;SDS011;44302;47.914;10.642;2022-07-06T10:51:28;2.23;;;1.60;;
58512;SDS011;44302;47.914;10.642;2022-07-06T10:53:58;2.63;;;1.40;;
58512;SDS011;44302;47.914;10.642;2022-07-06T10:56:35;4.63;;;1.70;;
58512;SDS011;44302;47.914;10.642;2022-07-06T10:59:09;3.20;;;1.43;;
58512;SDS011;44302;47.914;10.642;2022-07-06T11:04:41;4.40;;;1.70;;
58512;SDS011;44302;47.914;10.642;2022-07-06T11:07:18;3.77;;;1.30;;
58512;SDS011;44302;47.914;10.642;2022-07-06T11:09:58;5.00;;;1.77;;
58512;SDS011;44302;47.914;10.642;2022-07-06T11:12:24;2.97;;;1.70;;
58512;SDS011;44302;47.914;10.642;2022-07-06T11:14:51;1.47;;;1.37;;
58512;SDS011;44302;47.914;10.642;2022-07-06T11:17:17;2.57;;;1.50;;
58512;SDS011;44302;47.914;10.642;2022-07-06T11:19:48;1.40;;;1.30;;
58512;SDS011;44302;47.914;10.642;2022-07-06T11:22:16;1.67;;;1.40;;
58512;SDS011;44302;47.914;10.642;2022-07-06T11:24:43;3.77;;;1.50;;
58512;SDS011;44302;47.914;10.642;2022-07-06T11:27:10;1.97;;;1.20;;
58512;SDS011;44302;47.914;10.642;2022-07-06T11:29:36;1.57;;;1.30;;
58512;SDS011;44302;47.914;10.642;2022-07-06T11:32:04;1.90;;;1.13;;
58512;SDS011;44302;47.914;10.642;2022-07-06T11:34:34;3.37;;;1.43;;
58512;SDS011;44302;47.914;10.642;2022-07-06T11:37:09;3.37;;;1.23;;
58512;SDS011;44302;47.914;10.642;2022-07-06T11:39:37;2.80;;;1.27;;
58512;SDS011;44302;47.914;10.642;2022-07-06T11:42:05;2.10;;;1.20;;
58512;SDS011;44302;47.914;10.642;2022-07-06T11:44:35;1.40;;;1.13;;
58512;SDS011;44302;47.914;10.642;2022-07-06T11:47:02;3.50;;;1.30;;
58512;SDS011;44302;47.914;10.642;2022-07-06T11:49:29;1.70;;;1.47;;
58512;SDS011;44302;47.914;10.642;2022-07-06T11:51:56;3.77;;;1.30;;
58512;SDS011;44302;47.914;10.642;2022-07-06T11:54:23;6.43;;;2.03;;
58512;SDS011;44302;47.914;10.642;2022-07-06T11:56:54;4.00;;;1.50;;
58512;SDS011;44302;47.914;10.642;2022-07-06T11:59:33;3.03;;;1.50;;
58512;SDS011;44302;47.914;10.642;2022-07-06T12:02:10;2.10;;;1.50;;
58512;SDS011;44302;47.914;10.642;2022-07-06T12:04:38;1.57;;;1.20;;
58512;SDS011;44302;47.914;10.642;2022-07-06T12:07:06;1.90;;;1.40;;
58512;SDS011;44302;47.914;10.642;2022-07-06T12:09:33;2.20;;;1.27;;
58512;SDS011;44302;47.914;10.642;2022-07-06T12:12:00;4.33;;;1.53;;
58512;SDS011;44302;47.914;10.642;2022-07-06T12:14:27;4.00;;;1.30;;
58512;SDS011;44302;47.914;10.642;2022-07-06T12:16:54;2.03;;;1.50;;
58512;SDS011;44302;47.914;10.642;2022-07-06T12:19:23;1.93;;;1.37;;
58512;SDS011;44302;47.914;10.642;2022-07-06T12:21:49;4.63;;;1.40;;
58512;SDS011;44302;47.914;10.642;2022-07-06T12:24:18;2.70;;;1.40;;
58512;SDS011;44302;47.914;10.642;2022-07-06T12:26:45;3.43;;;1.33;;
58512;SDS011;44302;47.914;10.642;2022-07-06T12:29:12;4.33;;;1.40;;
58512;SDS011;44302;47.914;10.642;2022-07-06T12:34:04;5.17;;;1.70;;
58512;SDS011;44302;47.914;10.642;2022-07-06T12:36:31;7.27;;;1.60;;
58512;SDS011;44302;47.914;10.642;2022-07-06T12:39:11;8.07;;;1.60;;
58512;SDS011;44302;47.914;10.642;2022-07-06T12:41:41;2.33;;;1.33;;
58512;SDS011;44302;47.914;10.642;2022-07-06T12:44:11;1.67;;;1.40;;
58512;SDS011;44302;47.914;10.642;2022-07-06T12:46:38;2.20;;;1.20;;
58512;SDS011;44302;47.914;10.642;2022-07-06T12:54:18;6.80;;;1.50;;
58512;SDS011;44302;47.914;10.642;2022-07-06T12:57:04;4.73;;;2.00;;
58512;SDS011;44302;47.914;10.642;2022-07-06T12:59:35;3.47;;;1.20;;
58512;SDS011;44302;47.914;10.642;2022-07-06T13:02:07;2.77;;;1.40;;
58512;SDS011;44302;47.914;10.642;2022-07-06T13:04:34;3.13;;;1.17;;
58512;SDS011;44302;47.914;10.642;2022-07-06T13:07:01;4.40;;;1.50;;
58512;SDS011;44302;47.914;10.642;2022-07-06T13:09:28;2.33;;;1.27;;
58512;SDS011;44302;47.914;10.642;2022-07-06T13:11:54;2.07;;;1.40;;
58512;SDS011;44302;47.914;10.642;2022-07-06T13:14:20;3.27;;;1.53;;
58512;SDS011;44302;47.914;10.642;2022-07-06T13:16:46;2.30;;;1.40;;
58512;SDS011;44302;47.914;10.642;2022-07-06T13:19:12;1.57;;;1.30;;
58512;SDS011;44302;47.914;10.642;2022-07-06T13:21:39;2.50;;;1.20;;
58512;SDS011;44302;47.914;10.642;2022-07-06T13:24:05;6.90;;;1.40;;
58512;SDS011;44302;47.914;10.642;2022-07-06T13:26:32;3.13;;;1.50;;
58512;SDS011;44302;47.914;10.642;2022-07-06T13:29:02;5.43;;;1.60;;
58512;SDS011;44302;47.914;10.642;2022-07-06T13:31:28;4.93;;;1.73;;
58512;SDS011;44302;47.914;10.642;2022-07-06T13:33:55;3.27;;;1.47;;
58512;SDS011;44302;47.914;10.642;2022-07-06T13:36:22;2.90;;;1.33;;
58512;SDS011;44302;47.914;10.642;2022-07-06T13:38:48;2.50;;;1.30;;
58512;SDS011;44302;47.914;10.642;2022-07-06T13:41:14;3.93;;;1.40;;
58512;SDS011;44302;47.914;10.642;2022-07-06T13:43:40;2.30;;;1.30;;
58512;SDS011;44302;47.914;10.642;2022-07-06T13:46:06;1.43;;;1.10;;
58512;SDS011;44302;47.914;10.642;2022-07-06T13:48:33;4.43;;;1.40;;
58512;SDS011;44302;47.914;10.642;2022-07-06T13:50:59;2.27;;;1.10;;
58512;SDS011;44302;47.914;10.642;2022-07-06T13:53:26;2.63;;;1.20;;
58512;SDS011;44302;47.914;10.642;2022-07-06T13:55:52;1.83;;;1.10;;
58512;SDS011;44302;47.914;10.642;2022-07-06T13:58:18;3.53;;;1.00;;
58512;SDS011;44302;47.914;10.642;2022-07-06T14:00:44;2.27;;;1.03;;
58512;SDS011;44302;47.914;10.642;2022-07-06T14:03:09;1.30;;;1.03;;
58512;SDS011;44302;47.914;10.642;2022-07-06T14:05:35;1.10;;;1.00;;
58512;SDS011;44302;47.914;10.642;2022-07-06T14:08:01;1.30;;;1.20;;
58512;SDS011;44302;47.914;10.642;2022-07-06T14:10:27;1.63;;;1.20;;
58512;SDS011;44302;47.914;10.642;2022-07-06T14:12:53;1.67;;;1.20;;
58512;SDS011;44302;47.914;10.642;2022-07-06T14:15:19;2.20;;;1.23;;
58512;SDS011;44302;47.914;10.642;2022-07-06T14:17:44;2.50;;;1.20;;
58512;SDS011;44302;47.914;10.642;2022-07-06T14:20:12;2.67;;;1.20;;
58512;SDS011;44302;47.914;10.642;2022-07-06T14:22:38;1.77;;;1.27;;
58512;SDS011;44302;47.914;10.642;2022-07-06T14:25:04;2.50;;;1.10;;
58512;SDS011;44302;47.914;10.642;2022-07-06T14:27:31;6.93;;;1.90;;
58512;SDS011;44302;47.914;10.642;2022-07-06T14:29:58;1.93;;;1.57;;
58512;SDS011;44302;47.914;10.642;2022-07-06T14:32:23;3.90;;;1.50;;
58512;SDS011;44302;47.914;10.642;2022-07-06T14:34:49;2.67;;;1.60;;
58512;SDS011;44302;47.914;10.642;2022-07-06T14:37:14;2.90;;;1.17;;
58512;SDS011;44302;47.914;10.642;2022-07-06T14:39:40;2.23;;;1.37;;
58512;SDS011;44302;47.914;10.642;2022-07-06T14:42:07;2.30;;;1.13;;
58512;SDS011;44302;47.914;10.642;2022-07-06T14:44:32;2.10;;;1.40;;